TVF21KT LEZL-LFPO
Flight info
| Callsign | TVF21KT |
|---|---|
| Flight time | N/A |
| Altitude | 34000 |
| Route | HIJ DCT PARKA DCT TLD DCT SIE DCT EDIGO DCT DGO DCT CEGAM DCT BAGAS DCT SSN DCT LUSEM DCT LULUT DCT TUDRA/N0426F280 DCT BEVOL UT158 AMB |
| Aircraft | B738/M-SDFGHIJ1RWXY/LB1 |
Departure
| Time | 2026-04-17 08:19 |
|---|---|
| Airport | Seville Airport (LEZL) |
Arrival
| Time | N/A |
|---|---|
| Airport | Paris-Orly Airport (LFPO) |
| Time | Latitude | Longitude | Altitude | Speed | Heading |
|---|---|---|---|---|---|
| 2026-04-17 07:54 | 37.42190 | -5.89729 | 93 ft | 0 kts | 315° |
| 2026-04-17 08:13 | 37.42199 | -5.89740 | 94 ft | 4 kts | 314° |
| 2026-04-17 08:14 | 37.42178 | -5.89866 | 93 ft | 10 kts | 225° |
| 2026-04-17 08:14 | 37.42122 | -5.89935 | 93 ft | 12 kts | 225° |
| 2026-04-17 08:14 | 37.42066 | -5.90010 | 95 ft | 12 kts | 236° |
| 2026-04-17 08:14 | 37.42060 | -5.90025 | 94 ft | 0 kts | 246° |
| 2026-04-17 08:15 | 37.42039 | -5.90074 | 94 ft | 11 kts | 224° |
| 2026-04-17 08:15 | 37.41984 | -5.90140 | 94 ft | 11 kts | 248° |
| 2026-04-17 08:15 | 37.41979 | -5.90236 | 94 ft | 12 kts | 270° |
| 2026-04-17 08:15 | 37.41980 | -5.90359 | 93 ft | 16 kts | 269° |
| 2026-04-17 08:16 | 37.41979 | -5.90499 | 93 ft | 16 kts | 270° |
| 2026-04-17 08:16 | 37.41979 | -5.90636 | 92 ft | 15 kts | 269° |
| 2026-04-17 08:16 | 37.41978 | -5.90767 | 91 ft | 15 kts | 270° |
| 2026-04-17 08:16 | 37.41977 | -5.90893 | 90 ft | 14 kts | 264° |
| 2026-04-17 08:17 | 37.41942 | -5.91004 | 89 ft | 13 kts | 240° |
| 2026-04-17 08:17 | 37.41895 | -5.91104 | 88 ft | 13 kts | 239° |
| 2026-04-17 08:17 | 37.41837 | -5.91185 | 89 ft | 13 kts | 194° |
| 2026-04-17 08:17 | 37.41790 | -5.91114 | 91 ft | 12 kts | 91° |
| 2026-04-17 08:18 | 37.41788 | -5.91006 | 91 ft | 13 kts | 90° |
| 2026-04-17 08:18 | 37.41790 | -5.90691 | 93 ft | 71 kts | 90° |
| 2026-04-17 08:18 | 37.41795 | -5.89774 | 97 ft | 136 kts | 90° |
| 2026-04-17 08:18 | 37.41800 | -5.88406 | 272 ft | 172 kts | 89° |
| 2026-04-17 08:19 | 37.41761 | -5.86966 | 1171 ft | 164 kts | 91° |
| 2026-04-17 08:19 | 37.41727 | -5.85525 | 1949 ft | 167 kts | 91° |
| 2026-04-17 08:19 | 37.41700 | -5.83923 | 2450 ft | 202 kts | 91° |
| 2026-04-17 08:19 | 37.41676 | -5.82032 | 2774 ft | 229 kts | 88° |
| 2026-04-17 08:20 | 37.41923 | -5.79971 | 3223 ft | 251 kts | 77° |
| 2026-04-17 08:20 | 37.42395 | -5.77802 | 4023 ft | 259 kts | 70° |
| 2026-04-17 08:20 | 37.43463 | -5.75952 | 5024 ft | 269 kts | 40° |
| 2026-04-17 08:20 | 37.45015 | -5.74706 | 5992 ft | 276 kts | 30° |
| 2026-04-17 08:21 | 37.46806 | -5.73584 | 6896 ft | 284 kts | 26° |
| 2026-04-17 08:21 | 37.48596 | -5.72536 | 7905 ft | 284 kts | 25° |
| 2026-04-17 08:21 | 37.50406 | -5.71485 | 8859 ft | 289 kts | 25° |
| 2026-04-17 08:21 | 37.52239 | -5.70414 | 9872 ft | 290 kts | 24° |
| 2026-04-17 08:22 | 37.54079 | -5.69329 | 10708 ft | 298 kts | 24° |
| 2026-04-17 08:22 | 37.56032 | -5.68170 | 10994 ft | 325 kts | 24° |
| 2026-04-17 08:22 | 37.58146 | -5.66907 | 11325 ft | 346 kts | 25° |
| 2026-04-17 08:22 | 37.60325 | -5.65598 | 12022 ft | 354 kts | 25° |
| 2026-04-17 08:23 | 37.62561 | -5.64248 | 12849 ft | 358 kts | 25° |
| 2026-04-17 08:23 | 37.64814 | -5.62883 | 13664 ft | 363 kts | 25° |
| 2026-04-17 08:23 | 37.67150 | -5.61466 | 14386 ft | 369 kts | 25° |
| 2026-04-17 08:23 | 37.69436 | -5.60078 | 15217 ft | 370 kts | 25° |
| 2026-04-17 08:24 | 37.71765 | -5.58662 | 16005 ft | 373 kts | 25° |
| 2026-04-17 08:24 | 37.74112 | -5.57234 | 16780 ft | 376 kts | 25° |
| 2026-04-17 08:24 | 37.76507 | -5.55775 | 17530 ft | 380 kts | 25° |
| 2026-04-17 08:24 | 37.78872 | -5.54334 | 18263 ft | 383 kts | 25° |
| 2026-04-17 08:25 | 37.81275 | -5.52869 | 18914 ft | 387 kts | 25° |
| 2026-04-17 08:25 | 37.83757 | -5.51354 | 19496 ft | 393 kts | 25° |
| 2026-04-17 08:25 | 37.86200 | -5.49862 | 20052 ft | 398 kts | 25° |
| 2026-04-17 08:25 | 37.88712 | -5.48327 | 20636 ft | 403 kts | 25° |
| 2026-04-17 08:26 | 37.91251 | -5.46775 | 21242 ft | 407 kts | 25° |
| 2026-04-17 08:26 | 37.93816 | -5.45204 | 21750 ft | 413 kts | 25° |
| 2026-04-17 08:26 | 37.96409 | -5.43616 | 22408 ft | 414 kts | 25° |
| 2026-04-17 08:26 | 37.99023 | -5.42014 | 22922 ft | 420 kts | 25° |
| 2026-04-17 08:27 | 38.01661 | -5.40395 | 23495 ft | 423 kts | 25° |
| 2026-04-17 08:27 | 38.04317 | -5.38764 | 24007 ft | 427 kts | 25° |
| 2026-04-17 08:27 | 38.07007 | -5.37111 | 24481 ft | 430 kts | 25° |
| 2026-04-17 08:27 | 38.09704 | -5.35452 | 24926 ft | 433 kts | 25° |
| 2026-04-17 08:28 | 38.12426 | -5.33776 | 25351 ft | 437 kts | 25° |
| 2026-04-17 08:28 | 38.15175 | -5.32083 | 25832 ft | 439 kts | 25° |
| 2026-04-17 08:28 | 38.17030 | -5.30939 | 26169 ft | 440 kts | 25° |
| 2026-04-17 08:28 | 38.19798 | -5.29231 | 26602 ft | 443 kts | 25° |
| 2026-04-17 08:29 | 38.23487 | -5.26953 | 27114 ft | 448 kts | 25° |
| 2026-04-17 08:29 | 38.25357 | -5.25797 | 27378 ft | 450 kts | 25° |
| 2026-04-17 08:29 | 38.28183 | -5.24048 | 27773 ft | 453 kts | 25° |
| 2026-04-17 08:29 | 38.31025 | -5.22289 | 28171 ft | 456 kts | 25° |
| 2026-04-17 08:30 | 38.33887 | -5.20515 | 28541 ft | 459 kts | 25° |
| 2026-04-17 08:30 | 38.36770 | -5.18727 | 28917 ft | 462 kts | 25° |
| 2026-04-17 08:30 | 38.39662 | -5.16931 | 29278 ft | 465 kts | 25° |
| 2026-04-17 08:30 | 38.42577 | -5.15120 | 29644 ft | 468 kts | 25° |
| 2026-04-17 08:31 | 38.45508 | -5.13297 | 30075 ft | 468 kts | 25° |
| 2026-04-17 08:31 | 38.48430 | -5.11486 | 30563 ft | 466 kts | 24° |
| 2026-04-17 08:31 | 38.51506 | -5.10248 | 30985 ft | 463 kts | 7° |
| 2026-04-17 08:31 | 38.54711 | -5.10183 | 31427 ft | 460 kts | 354° |
| 2026-04-17 08:32 | 38.57893 | -5.10528 | 31812 ft | 459 kts | 353° |
| 2026-04-17 08:32 | 38.61081 | -5.10917 | 32151 ft | 460 kts | 353° |
| 2026-04-17 08:32 | 38.64270 | -5.11302 | 32533 ft | 460 kts | 353° |
| 2026-04-17 08:32 | 38.67454 | -5.11665 | 32967 ft | 459 kts | 354° |
| 2026-04-17 08:33 | 38.70628 | -5.12007 | 33400 ft | 458 kts | 354° |
| 2026-04-17 08:33 | 38.73795 | -5.12334 | 33784 ft | 457 kts | 354° |
| 2026-04-17 08:33 | 38.76972 | -5.12656 | 34142 ft | 458 kts | 354° |
| 2026-04-17 08:34 | 38.83369 | -5.13303 | 34171 ft | 461 kts | 354° |
| 2026-04-17 08:34 | 38.89732 | -5.13950 | 34162 ft | 456 kts | 354° |
| 2026-04-17 08:35 | 38.96018 | -5.14559 | 34169 ft | 456 kts | 358° |
| 2026-04-17 08:35 | 38.99185 | -5.14211 | 34169 ft | 458 kts | 11° |
| 2026-04-17 08:35 | 39.02232 | -5.13023 | 34179 ft | 459 kts | 22° |
| 2026-04-17 08:36 | 39.07729 | -5.08842 | 34173 ft | 460 kts | 33° |
| 2026-04-17 08:36 | 39.13077 | -5.04283 | 34168 ft | 462 kts | 33° |
| 2026-04-17 08:37 | 39.18451 | -4.99746 | 34174 ft | 462 kts | 33° |
| 2026-04-17 08:37 | 39.23855 | -4.95238 | 34168 ft | 463 kts | 33° |
| 2026-04-17 08:38 | 39.29267 | -4.90734 | 34176 ft | 463 kts | 33° |
| 2026-04-17 08:38 | 39.34673 | -4.86228 | 34175 ft | 463 kts | 33° |
| 2026-04-17 08:39 | 39.40083 | -4.81708 | 34168 ft | 462 kts | 33° |
| 2026-04-17 08:39 | 39.45484 | -4.77186 | 34176 ft | 462 kts | 33° |
| 2026-04-17 08:40 | 39.50874 | -4.72664 | 34182 ft | 462 kts | 33° |
| 2026-04-17 08:40 | 39.56264 | -4.68135 | 34177 ft | 462 kts | 33° |
| 2026-04-17 08:41 | 39.61657 | -4.63593 | 34184 ft | 462 kts | 33° |
| 2026-04-17 08:41 | 39.67050 | -4.59044 | 34173 ft | 462 kts | 33° |
| 2026-04-17 08:42 | 39.72444 | -4.54484 | 34185 ft | 462 kts | 33° |
| 2026-04-17 08:42 | 39.77826 | -4.49926 | 34182 ft | 462 kts | 33° |
| 2026-04-17 08:43 | 39.83212 | -4.45357 | 34176 ft | 462 kts | 33° |
| 2026-04-17 08:43 | 39.88595 | -4.40779 | 34183 ft | 462 kts | 33° |
| 2026-04-17 08:44 | 39.93975 | -4.36198 | 34184 ft | 462 kts | 33° |
| 2026-04-17 08:44 | 39.99492 | -4.31904 | 34185 ft | 462 kts | 25° |
| 2026-04-17 08:45 | 40.04476 | -4.28886 | 34183 ft | 462 kts | 23° |
| 2026-04-17 08:45 | 40.10337 | -4.25457 | 34192 ft | 462 kts | 24° |
| 2026-04-17 08:46 | 40.16177 | -4.21966 | 34187 ft | 462 kts | 24° |
| 2026-04-17 08:46 | 40.22007 | -4.18417 | 34192 ft | 462 kts | 24° |
| 2026-04-17 08:47 | 40.27824 | -4.14851 | 34194 ft | 462 kts | 24° |
| 2026-04-17 08:47 | 40.33649 | -4.11273 | 34192 ft | 462 kts | 24° |
| 2026-04-17 08:48 | 40.39473 | -4.07692 | 34191 ft | 462 kts | 24° |
| 2026-04-17 08:48 | 40.45297 | -4.04105 | 34204 ft | 463 kts | 24° |
| 2026-04-17 08:49 | 40.51133 | -4.00504 | 34208 ft | 463 kts | 24° |
| 2026-04-17 08:49 | 40.56958 | -3.96902 | 34219 ft | 463 kts | 24° |